Time;durP1;ratioP1;P1;durP2;ratioP2;P2;SDS_P1;SDS_P2;PMS_P1;PMS_P2;Temp;Humidity;BMP_temperature;BMP_pressure;BME280_temperature;BME280_humidity;BME280_pressure;Samples;Min_cycle;Max_cycle;Signal;HPM_P1;HPM_P2
2022/12/14 00:01:17;;;;;;;21.98;10.80;;;;;;;;;;5013367;28;20061;-83
2022/12/14 00:03:46;;;;;;;22.35;11.65;;;;;;;;;;5009520;28;20377;-82
2022/12/14 00:06:25;;;;;;;19.38;10.65;;;;;;;;;;5027100;28;20108;-82
2022/12/14 00:08:57;;;;;;;20.60;11.00;;;;;;;;;;5019094;28;20034;-82
2022/12/14 00:11:33;;;;;;;24.17;11.25;;;;;;;;;;5018701;28;20030;-83
2022/12/14 00:14:06;;;;;;;24.00;12.02;;;;;;;;;;5032753;28;20038;-82
2022/12/14 00:16:33;;;;;;;22.65;11.90;;;;;;;;;;5018060;28;20074;-83
2022/12/14 00:19:04;;;;;;;21.40;11.77;;;;;;;;;;5018377;28;20033;-82
2022/12/14 00:21:50;;;;;;;23.35;11.68;;;;;;;;;;5035015;28;20037;-82
2022/12/14 00:24:17;;;;;;;22.38;11.55;;;;;;;;;;5036515;28;20234;-83
2022/12/14 00:26:58;;;;;;;21.08;11.35;;;;;;;;;;5019882;28;20037;-82
2022/12/14 00:29:30;;;;;;;20.13;11.35;;;;;;;;;;5022766;28;20026;-82
2022/12/14 00:31:56;;;;;;;20.23;11.80;;;;;;;;;;5022146;28;20033;-84
2022/12/14 00:34:30;;;;;;;23.00;12.52;;;;;;;;;;5023556;28;20081;-81
2022/12/14 00:36:56;;;;;;;24.63;10.93;;;;;;;;;;5021195;28;20034;-82
2022/12/14 00:39:30;;;;;;;21.90;12.05;;;;;;;;;;5035426;28;20018;-83
2022/12/14 00:42:01;;;;;;;22.05;11.75;;;;;;;;;;5007209;28;20037;-82
2022/12/14 00:44:28;;;;;;;20.33;11.20;;;;;;;;;;5015243;28;20094;-82
2022/12/14 00:47:03;;;;;;;23.80;11.80;;;;;;;;;;5016417;28;20283;-82
2022/12/14 00:49:30;;;;;;;21.02;11.55;;;;;;;;;;5018413;28;20034;-82
2022/12/14 00:51:56;;;;;;;21.13;11.85;;;;;;;;;;5017157;28;20113;-81
2022/12/14 00:54:28;;;;;;;17.50;10.25;;;;;;;;;;5034006;28;20046;-81
2022/12/14 00:56:54;;;;;;;20.80;12.00;;;;;;;;;;5034708;28;20030;-82
2022/12/14 00:59:20;;;;;;;22.30;12.82;;;;;;;;;;5019085;28;20033;-82
2022/12/14 01:01:46;;;;;;;27.70;12.10;;;;;;;;;;5006480;28;20045;-82
2022/12/14 01:04:16;;;;;;;19.40;10.73;;;;;;;;;;5012899;28;20079;-83
2022/12/14 01:06:51;;;;;;;21.73;12.30;;;;;;;;;;5031943;28;20415;-82
2022/12/14 01:09:26;;;;;;;22.40;11.85;;;;;;;;;;5019207;28;20041;-81
2022/12/14 01:11:55;;;;;;;23.48;12.13;;;;;;;;;;5017868;28;20042;-81
2022/12/14 01:14:21;;;;;;;23.08;12.00;;;;;;;;;;5033222;28;20041;-82
2022/12/14 01:16:47;;;;;;;23.02;12.40;;;;;;;;;;5016850;28;20022;-83
2022/12/14 01:19:16;;;;;;;20.70;12.05;;;;;;;;;;5026124;28;20095;-82
2022/12/14 01:22:00;;;;;;;19.90;10.18;;;;;;;;;;5032633;28;20042;-82
2022/12/14 01:24:26;;;;;;;18.75;10.82;;;;;;;;;;5016790;28;20037;-81
2022/12/14 01:26:52;;;;;;;18.02;10.23;;;;;;;;;;5015434;28;20030;-82
2022/12/14 01:29:18;;;;;;;23.83;11.70;;;;;;;;;;5013788;28;20038;-81
2022/12/14 01:31:45;;;;;;;22.55;11.98;;;;;;;;;;5043852;28;20029;-82
2022/12/14 01:34:11;;;;;;;21.83;11.98;;;;;;;;;;5025135;28;20461;-82
2022/12/14 01:36:37;;;;;;;21.23;11.35;;;;;;;;;;5020906;28;20029;-82
2022/12/14 01:39:06;;;;;;;26.55;12.38;;;;;;;;;;5021539;28;20034;-82
2022/12/14 01:41:37;;;;;;;25.73;13.75;;;;;;;;;;5036020;28;20092;-82
2022/12/14 01:44:23;;;;;;;22.08;12.50;;;;;;;;;;5019965;28;20094;-82
2022/12/14 01:46:52;;;;;;;24.40;11.80;;;;;;;;;;5016076;28;20634;-82
2022/12/14 01:49:18;;;;;;;23.90;13.70;;;;;;;;;;5033337;28;20064;-82
2022/12/14 01:51:50;;;;;;;25.60;13.75;;;;;;;;;;5020313;28;20085;-82
2022/12/14 01:54:16;;;;;;;24.08;12.73;;;;;;;;;;5036886;28;20041;-82
2022/12/14 01:56:44;;;;;;;23.92;13.25;;;;;;;;;;5004657;28;20030;-82
2022/12/14 01:59:18;;;;;;;22.48;11.80;;;;;;;;;;5037792;28;20061;-83
2022/12/14 02:01:45;;;;;;;21.23;11.85;;;;;;;;;;5021619;28;20052;-81
2022/12/14 02:04:13;;;;;;;24.45;13.52;;;;;;;;;;5021141;28;20052;-82
2022/12/14 02:06:42;;;;;;;24.77;13.52;;;;;;;;;;5068687;28;20096;-81
2022/12/14 02:09:10;;;;;;;21.90;12.15;;;;;;;;;;5039082;28;20044;-81
2022/12/14 02:11:49;;;;;;;24.65;13.00;;;;;;;;;;5051101;28;20097;-81
2022/12/14 02:14:15;;;;;;;20.55;11.63;;;;;;;;;;5045905;28;20049;-82
2022/12/14 02:16:41;;;;;;;24.85;12.70;;;;;;;;;;5018178;28;20116;-83
2022/12/14 02:19:07;;;;;;;23.45;12.20;;;;;;;;;;5019876;28;20022;-82
2022/12/14 02:21:52;;;;;;;21.38;12.63;;;;;;;;;;5035793;28;20030;-81
2022/12/14 02:24:37;;;;;;;21.75;11.38;;;;;;;;;;5021370;28;20026;-82
2022/12/14 02:27:30;;;;;;;23.48;12.02;;;;;;;;;;5022002;28;20026;-81
2022/12/14 02:29:59;;;;;;;22.25;12.07;;;;;;;;;;5005622;28;20120;-82
2022/12/14 02:32:42;;;;;;;23.77;12.80;;;;;;;;;;5005438;28;20014;-82
2022/12/14 02:35:08;;;;;;;;;;;;;;;;;;5020354;28;20357;-81
2022/12/14 02:37:38;;;;;;;20.42;10.73;;;;;;;;;;5021792;28;19913;-83
2022/12/14 02:40:20;;;;;;;23.52;11.68;;;;;;;;;;5020346;28;20054;-82
2022/12/14 02:42:46;;;;;;;25.33;12.68;;;;;;;;;;5036561;28;20397;-82
2022/12/14 02:45:31;;;;;;;23.15;12.48;;;;;;;;;;5020752;28;20023;-83
2022/12/14 02:48:07;;;;;;;22.23;12.50;;;;;;;;;;5023373;28;20022;-83
2022/12/14 02:50:39;;;;;;;28.10;11.43;;;;;;;;;;5036981;28;20122;-82
2022/12/14 02:53:14;;;;;;;22.67;11.60;;;;;;;;;;5022420;28;20030;-81
2022/12/14 02:55:43;;;;;;;24.88;12.77;;;;;;;;;;5018627;28;20055;-82
2022/12/14 02:58:23;;;;;;;19.70;11.88;;;;;;;;;;5019730;28;20077;-82
2022/12/14 03:00:50;;;;;;;23.25;12.05;;;;;;;;;;5034837;28;20026;-82
2022/12/14 03:03:16;;;;;;;29.30;12.50;;;;;;;;;;5035313;28;20026;-81
2022/12/14 03:05:42;;;;;;;23.15;13.15;;;;;;;;;;5027774;28;20068;-82
2022/12/14 03:08:10;;;;;;;24.55;13.45;;;;;;;;;;5025436;28;20026;-82
2022/12/14 03:10:40;;;;;;;23.27;12.77;;;;;;;;;;5017969;28;20026;-83
2022/12/14 03:13:11;;;;;;;26.20;12.70;;;;;;;;;;5018678;28;20222;-82
2022/12/14 03:15:39;;;;;;;24.77;12.48;;;;;;;;;;5020174;28;20052;-82
2022/12/14 03:18:12;;;;;;;19.73;11.85;;;;;;;;;;5053135;28;20018;-82
2022/12/14 03:20:42;;;;;;;21.95;12.55;;;;;;;;;;5042067;28;20092;-82
2022/12/14 03:23:13;;;;;;;26.08;13.40;;;;;;;;;;5035363;28;20052;-82
2022/12/14 03:25:57;;;;;;;;;;;;;;;;;;;;;
2022/12/14 03:28:30;;;;;;;25.83;12.90;;;;;;;;;;5030362;28;20054;-82
2022/12/14 03:31:05;;;;;;;;;;;;;;;;;;5024557;28;20034;-82
2022/12/14 03:33:40;;;;;;;25.50;13.20;;;;;;;;;;5035653;28;20344;-84
2022/12/14 03:36:25;;;;;;;22.90;13.32;;;;;;;;;;5036353;28;20558;-83
2022/12/14 03:38:59;;;;;;;23.27;11.60;;;;;;;;;;5024622;28;20034;-83
2022/12/14 03:41:49;;;;;;;19.90;11.32;;;;;;;;;;5036585;28;20030;-82
2022/12/14 03:44:37;;;;;;;18.58;10.68;;;;;;;;;;5026197;28;20092;-83
2022/12/14 03:47:24;;;;;;;23.15;12.73;;;;;;;;;;5019596;28;20033;-82
2022/12/14 03:49:55;;;;;;;19.23;11.15;;;;;;;;;;5034935;28;20050;-82
2022/12/14 03:52:40;;;;;;;21.83;12.13;;;;;;;;;;5018914;28;20045;-82
2022/12/14 03:55:33;;;;;;;20.77;12.25;;;;;;;;;;5021763;28;20289;-82
2022/12/14 04:01:05;;;;;;;21.35;11.13;;;;;;;;;;5004566;28;20052;-83
2022/12/14 04:03:31;;;;;;;;;;;;;;;;;;5019191;28;20097;-82
2022/12/14 04:06:33;;;;;;;;;;;;;;;;;;;;;
2022/12/14 04:09:20;;;;;;;22.23;12.07;;;;;;;;;;5010955;28;20128;-83
2022/12/14 04:26:38;;;;;;;;;;;;;;;;;;;;;
2022/12/14 04:35:26;;;;;;;21.58;11.55;;;;;;;;;;4949210;28;20043;-82
2022/12/14 04:37:58;;;;;;;22.58;12.52;;;;;;;;;;4985054;28;20160;-82
2022/12/14 04:40:56;;;;;;;22.73;13.40;;;;;;;;;;5021844;28;20022;-81
2022/12/14 04:43:40;;;;;;;21.95;12.25;;;;;;;;;;5016163;28;20034;-83
2022/12/14 05:03:05;;;;;;;23.40;13.63;;;;;;;;;;5217068;23;20058;-83
2022/12/14 05:05:54;;;;;;;21.75;12.75;;;;;;;;;;5018404;28;20042;-84
2022/12/14 05:11:49;;;;;;;22.38;12.02;;;;;;;;;;5015138;28;20420;-83
2022/12/14 05:14:34;;;;;;;20.95;11.63;;;;;;;;;;5004041;28;20519;-83
2022/12/14 05:17:32;;;;;;;22.00;13.15;;;;;;;;;;5035801;28;20049;-81
2022/12/14 05:54:06;;;;;;;22.63;12.50;;;;;;;;;;5021957;28;20102;-82
2022/12/14 05:57:24;;;;;;;23.05;12.18;;;;;;;;;;4910117;29;20461;-81
2022/12/14 06:03:49;;;;;;;20.50;12.48;;;;;;;;;;4895946;29;20127;-82
2022/12/14 06:07:10;;;;;;;25.58;12.15;;;;;;;;;;4815551;29;20057;-81
2022/12/14 07:03:48;;;;;;;30.67;15.98;;;;;;;;;;5004335;28;20041;-83
2022/12/14 07:16:11;;;;;;;34.45;16.08;;;;;;;;;;5015346;28;20072;-82
2022/12/14 07:19:07;;;;;;;29.38;15.48;;;;;;;;;;4985138;28;20042;-81
2022/12/14 07:21:34;;;;;;;26.98;14.38;;;;;;;;;;4992944;28;20038;-82
2022/12/14 07:24:00;;;;;;;28.63;14.68;;;;;;;;;;5002305;28;20021;-83
2022/12/14 07:26:28;;;;;;;29.40;16.55;;;;;;;;;;5004113;28;20302;-83
2022/12/14 07:28:54;;;;;;;31.92;16.90;;;;;;;;;;5036647;28;20024;-82
2022/12/14 07:31:21;;;;;;;31.52;17.02;;;;;;;;;;5047364;28;20085;-79
2022/12/14 07:33:47;;;;;;;29.88;15.70;;;;;;;;;;5017181;28;20473;-82
2022/12/14 07:36:15;;;;;;;33.50;17.15;;;;;;;;;;5030701;28;20064;-78
2022/12/14 07:38:47;;;;;;;28.77;15.55;;;;;;;;;;5025619;28;20025;-82
2022/12/14 07:41:15;;;;;;;33.72;16.60;;;;;;;;;;5028157;28;20026;-80
2022/12/14 07:43:42;;;;;;;31.77;16.83;;;;;;;;;;5018379;28;20030;-80
2022/12/14 07:46:09;;;;;;;29.42;17.42;;;;;;;;;;5011209;28;20049;-81
2022/12/14 07:48:36;;;;;;;29.90;16.95;;;;;;;;;;5004335;28;20034;-80
2022/12/14 07:51:09;;;;;;;30.20;15.73;;;;;;;;;;4989885;28;20030;-83
2022/12/14 07:54:03;;;;;;;28.05;15.68;;;;;;;;;;5023031;28;20050;-86
2022/12/14 07:57:11;;;;;;;29.88;16.83;;;;;;;;;;5008205;28;20033;-84
2022/12/14 08:00:27;;;;;;;30.08;16.23;;;;;;;;;;4887428;29;20112;-86
2022/12/14 08:05:57;;;;;;;32.38;16.50;;;;;;;;;;4944415;29;20501;-86
2022/12/14 08:08:55;;;;;;;30.00;16.48;;;;;;;;;;4976270;28;20034;-85
2022/12/14 08:12:15;;;;;;;28.75;16.30;;;;;;;;;;4979397;28;20019;-86
2022/12/14 08:15:02;;;;;;;29.90;15.07;;;;;;;;;;4994307;28;20046;-83
2022/12/14 08:17:34;;;;;;;28.27;15.15;;;;;;;;;;5007358;28;20022;-84
2022/12/14 08:20:02;;;;;;;36.17;17.55;;;;;;;;;;5010475;28;20460;-84
2022/12/14 08:23:05;;;;;;;33.20;17.25;;;;;;;;;;5000669;28;20057;-84
2022/12/14 08:31:26;;;;;;;31.38;16.85;;;;;;;;;;5013925;28;20088;-86
2022/12/14 08:34:08;;;;;;;32.95;16.52;;;;;;;;;;5006911;28;20049;-85
2022/12/14 08:36:37;;;;;;;31.98;17.45;;;;;;;;;;5021214;28;20026;-84
2022/12/14 08:39:32;;;;;;;33.08;16.23;;;;;;;;;;5007166;28;20073;-84
2022/12/14 08:42:46;;;;;;;32.58;15.95;;;;;;;;;;5008030;28;20034;-84
2022/12/14 08:52:17;;;;;;;31.00;16.55;;;;;;;;;;4913883;29;20113;-86
2022/12/14 08:55:32;;;;;;;35.83;17.50;;;;;;;;;;4891795;29;20033;-85
2022/12/14 08:57:59;;;;;;;29.15;15.48;;;;;;;;;;4941542;29;20058;-83
2022/12/14 09:00:25;;;;;;;33.28;17.42;;;;;;;;;;4994324;28;20050;-83
2022/12/14 09:02:52;;;;;;;32.45;17.25;;;;;;;;;;5025379;28;20046;-85
2022/12/14 09:05:19;;;;;;;37.45;18.27;;;;;;;;;;5014728;28;20501;-85
2022/12/14 09:07:45;;;;;;;34.03;17.38;;;;;;;;;;5000927;28;20038;-86
2022/12/14 09:10:11;;;;;;;36.58;18.55;;;;;;;;;;5000752;28;20030;-83
2022/12/14 09:12:38;;;;;;;31.92;17.08;;;;;;;;;;4994224;28;20014;-82
2022/12/14 09:15:04;;;;;;;29.35;16.45;;;;;;;;;;5015706;28;20037;-84
2022/12/14 09:17:30;;;;;;;32.30;17.10;;;;;;;;;;5017382;28;20039;-86
2022/12/14 09:19:57;;;;;;;30.60;17.02;;;;;;;;;;4993168;28;20042;-85
2022/12/14 09:22:23;;;;;;;35.45;16.67;;;;;;;;;;5018555;28;20030;-84
2022/12/14 09:24:51;;;;;;;30.30;16.45;;;;;;;;;;5015296;28;20091;-85
2022/12/14 09:27:17;;;;;;;32.75;16.48;;;;;;;;;;5013116;28;20112;-84
2022/12/14 09:29:43;;;;;;;29.50;15.50;;;;;;;;;;5005732;28;20392;-84
2022/12/14 09:32:09;;;;;;;31.30;15.60;;;;;;;;;;5003654;28;20104;-85
2022/12/14 09:34:35;;;;;;;30.88;16.45;;;;;;;;;;5021855;28;20527;-84
2022/12/14 09:37:03;;;;;;;25.30;15.15;;;;;;;;;;5014572;28;20061;-82
2022/12/14 09:39:30;;;;;;;27.73;14.73;;;;;;;;;;5022907;28;20452;-85
2022/12/14 09:42:05;;;;;;;40.08;17.27;;;;;;;;;;5003874;28;20042;-85
2022/12/14 09:44:38;;;;;;;33.55;16.35;;;;;;;;;;4981045;28;20121;-85
2022/12/14 09:47:16;;;;;;;32.53;16.73;;;;;;;;;;5025408;28;20061;-88
2022/12/14 09:49:47;;;;;;;28.77;16.30;;;;;;;;;;5028465;28;20103;-82
2022/12/14 09:52:16;;;;;;;31.27;16.63;;;;;;;;;;5012153;28;20038;-85
2022/12/14 09:54:45;;;;;;;30.05;16.75;;;;;;;;;;5012104;28;20082;-85
2022/12/14 09:57:14;;;;;;;36.38;17.85;;;;;;;;;;4991861;28;20058;-83
2022/12/14 09:59:40;;;;;;;33.88;17.67;;;;;;;;;;5009598;28;20033;-87
2022/12/14 10:02:21;;;;;;;31.00;17.17;;;;;;;;;;5010310;28;20022;-85
2022/12/14 10:04:59;;;;;;;33.40;18.27;;;;;;;;;;5003739;28;20177;-85
2022/12/14 10:07:35;;;;;;;31.83;17.08;;;;;;;;;;5023456;28;20057;-86
2022/12/14 10:10:04;;;;;;;31.08;16.98;;;;;;;;;;5027007;28;20034;-84
2022/12/14 10:12:33;;;;;;;32.05;17.52;;;;;;;;;;5009052;28;20060;-85
2022/12/14 10:15:20;;;;;;;37.42;17.85;;;;;;;;;;5009725;28;20034;-84
2022/12/14 10:17:55;;;;;;;29.58;16.80;;;;;;;;;;5024433;28;20091;-85
2022/12/14 10:20:37;;;;;;;34.30;18.20;;;;;;;;;;5027963;28;20030;-84
2022/12/14 10:23:03;;;;;;;32.40;17.25;;;;;;;;;;5016600;28;20034;-82
2022/12/14 10:25:31;;;;;;;37.05;17.08;;;;;;;;;;5011906;28;20152;-85
2022/12/14 10:28:06;;;;;;;33.95;17.52;;;;;;;;;;5007651;28;20030;-84
2022/12/14 10:30:33;;;;;;;29.48;16.85;;;;;;;;;;5001370;28;20158;-82
2022/12/14 10:33:09;;;;;;;29.58;16.33;;;;;;;;;;5010520;28;20030;-85
2022/12/14 10:35:41;;;;;;;38.08;18.83;;;;;;;;;;5006809;28;20401;-85
2022/12/14 10:38:21;;;;;;;34.40;17.63;;;;;;;;;;5014132;28;20022;-83
2022/12/14 10:40:53;;;;;;;35.22;18.30;;;;;;;;;;5013647;28;20025;-84
2022/12/14 10:43:19;;;;;;;29.20;15.85;;;;;;;;;;4987281;28;20022;-86
2022/12/14 10:45:56;;;;;;;35.15;18.35;;;;;;;;;;5010170;28;20385;-83
2022/12/14 10:48:28;;;;;;;32.08;17.00;;;;;;;;;;5006779;28;20029;-84
2022/12/14 10:51:00;;;;;;;29.27;17.45;;;;;;;;;;5008296;28;20041;-85
2022/12/14 10:53:39;;;;;;;30.67;16.50;;;;;;;;;;5005232;28;20121;-85
2022/12/14 10:56:08;;;;;;;27.08;15.23;;;;;;;;;;5001601;28;20030;-84
2022/12/14 10:58:34;;;;;;;29.40;16.75;;;;;;;;;;5008019;28;20034;-84
2022/12/14 11:01:00;;;;;;;30.77;16.17;;;;;;;;;;5015987;28;20027;-83
2022/12/14 11:03:27;;;;;;;26.40;15.45;;;;;;;;;;5019033;28;20034;-85
2022/12/14 11:05:59;;;;;;;26.05;14.95;;;;;;;;;;5016795;28;20271;-86
2022/12/14 11:08:46;;;;;;;28.33;16.45;;;;;;;;;;4989811;28;20110;-84
2022/12/14 11:11:17;;;;;;;26.25;15.93;;;;;;;;;;5014177;28;20086;-82
2022/12/14 11:14:02;;;;;;;34.25;18.95;;;;;;;;;;5014444;28;20109;-86
2022/12/14 11:16:34;;;;;;;26.83;16.73;;;;;;;;;;5018830;28;20022;-86
2022/12/14 11:19:00;;;;;;;;;;;;;;;;;;5007874;28;20033;-86
2022/12/14 11:21:36;;;;;;;26.77;15.05;;;;;;;;;;5024609;28;19933;-84
2022/12/14 11:24:02;;;;;;;28.45;15.68;;;;;;;;;;5024823;28;20033;-86
2022/12/14 11:26:31;;;;;;;28.02;16.65;;;;;;;;;;5013615;28;20035;-84
2022/12/14 11:28:59;;;;;;;28.38;16.63;;;;;;;;;;5017108;28;20051;-86
2022/12/14 11:31:28;;;;;;;26.02;15.20;;;;;;;;;;5007558;28;20164;-86
2022/12/14 11:33:56;;;;;;;27.20;14.55;;;;;;;;;;5023833;28;20106;-84
2022/12/14 11:36:27;;;;;;;25.92;13.73;;;;;;;;;;5009739;28;20033;-87
2022/12/14 11:38:57;;;;;;;21.23;12.07;;;;;;;;;;5024408;28;20045;-84
2022/12/14 11:41:23;;;;;;;23.17;13.70;;;;;;;;;;5002949;28;20030;-83
2022/12/14 11:44:08;;;;;;;25.17;15.40;;;;;;;;;;4993577;28;20032;-86
2022/12/14 11:46:55;;;;;;;29.02;16.08;;;;;;;;;;5005960;28;20059;-84
2022/12/14 11:49:39;;;;;;;26.73;15.23;;;;;;;;;;5006807;28;20018;-84
2022/12/14 11:52:06;;;;;;;24.83;15.00;;;;;;;;;;5003967;28;20026;-86
2022/12/14 11:54:36;;;;;;;31.83;16.02;;;;;;;;;;4988810;28;20030;-86
2022/12/14 11:57:05;;;;;;;26.45;16.40;;;;;;;;;;4990322;28;20030;-86
2022/12/14 11:59:36;;;;;;;23.02;14.35;;;;;;;;;;4987386;28;20033;-85
2022/12/14 12:02:16;;;;;;;23.52;13.90;;;;;;;;;;4993692;28;20035;-86
2022/12/14 12:04:44;;;;;;;21.92;13.63;;;;;;;;;;5024413;28;20037;-85
2022/12/14 12:07:21;;;;;;;20.60;12.77;;;;;;;;;;5029239;28;20022;-86
2022/12/14 12:09:47;;;;;;;21.83;13.73;;;;;;;;;;5028726;28;20030;-85
2022/12/14 12:12:17;;;;;;;21.35;12.73;;;;;;;;;;5011919;28;20049;-85
2022/12/14 12:14:46;;;;;;;19.40;11.50;;;;;;;;;;5017266;28;20029;-85
2022/12/14 12:17:19;;;;;;;18.70;11.32;;;;;;;;;;5016799;28;20105;-85
2022/12/14 12:19:46;;;;;;;21.35;12.32;;;;;;;;;;5021127;28;20026;-85
2022/12/14 12:22:13;;;;;;;18.05;11.27;;;;;;;;;;5014509;28;20049;-84
2022/12/14 12:24:48;;;;;;;20.05;12.50;;;;;;;;;;5002784;28;20077;-84
2022/12/14 12:27:15;;;;;;;32.88;17.20;;;;;;;;;;5010002;28;20104;-84
2022/12/14 12:30:00;;;;;;;27.60;15.60;;;;;;;;;;5005130;28;20057;-84
2022/12/14 12:32:28;;;;;;;27.13;16.15;;;;;;;;;;5003683;28;20030;-86
2022/12/14 12:34:57;;;;;;;29.23;17.45;;;;;;;;;;5002394;28;20038;-84
2022/12/14 12:37:29;;;;;;;31.73;17.48;;;;;;;;;;4985751;28;20038;-85
2022/12/14 12:40:10;;;;;;;30.13;16.98;;;;;;;;;;5004750;28;20034;-85
2022/12/14 12:42:53;;;;;;;29.92;16.38;;;;;;;;;;5003810;28;20030;-86
2022/12/14 12:45:34;;;;;;;32.08;16.85;;;;;;;;;;5015291;28;20030;-83
2022/12/14 12:48:00;;;;;;;28.40;16.55;;;;;;;;;;5019297;28;20026;-83
2022/12/14 12:50:29;;;;;;;29.05;16.88;;;;;;;;;;5021406;28;20514;-83
2022/12/14 12:53:12;;;;;;;29.25;17.80;;;;;;;;;;5005491;28;20093;-84
2022/12/14 12:55:45;;;;;;;33.85;18.20;;;;;;;;;;5007394;28;20022;-83
2022/12/14 12:58:29;;;;;;;35.45;19.52;;;;;;;;;;5002311;28;20018;-85
2022/12/14 13:00:57;;;;;;;32.97;19.15;;;;;;;;;;5017879;28;20044;-82
2022/12/14 13:03:36;;;;;;;32.50;19.13;;;;;;;;;;4989142;28;20029;-85
2022/12/14 13:06:24;;;;;;;42.58;21.17;;;;;;;;;;5000838;28;20026;-85
2022/12/14 13:08:53;;;;;;;36.03;20.08;;;;;;;;;;5007521;28;20039;-82
2022/12/14 13:11:22;;;;;;;34.25;18.80;;;;;;;;;;5012740;28;20029;-84
2022/12/14 13:13:50;;;;;;;42.45;23.25;;;;;;;;;;5011535;28;20254;-83
2022/12/14 13:16:27;;;;;;;36.03;20.48;;;;;;;;;;4997144;28;20392;-85
2022/12/14 13:18:56;;;;;;;33.72;19.65;;;;;;;;;;5008384;28;20041;-85
2022/12/14 13:21:22;;;;;;;32.60;19.35;;;;;;;;;;5003838;28;20115;-85
2022/12/14 13:23:48;;;;;;;31.08;19.48;;;;;;;;;;5025195;28;20026;-86
2022/12/14 13:26:14;;;;;;;34.22;18.20;;;;;;;;;;5009998;28;20127;-84
2022/12/14 13:28:43;;;;;;;29.05;18.02;;;;;;;;;;5006921;28;20029;-84
2022/12/14 13:31:21;;;;;;;32.97;17.83;;;;;;;;;;5017185;28;20030;-86
2022/12/14 13:33:53;;;;;;;30.42;18.58;;;;;;;;;;5007678;28;20034;-84
2022/12/14 13:36:19;;;;;;;34.33;19.55;;;;;;;;;;5021693;28;20504;-84
2022/12/14 13:39:12;;;;;;;31.88;18.20;;;;;;;;;;5006235;28;20030;-85
2022/12/14 13:41:47;;;;;;;28.90;18.25;;;;;;;;;;4971904;28;20041;-83
2022/12/14 13:44:24;;;;;;;31.85;18.00;;;;;;;;;;5023805;28;20120;-86
2022/12/14 13:46:58;;;;;;;32.17;17.95;;;;;;;;;;5021901;28;20019;-86
2022/12/14 13:49:24;;;;;;;32.78;18.40;;;;;;;;;;5029477;28;20033;-85
2022/12/14 13:51:51;;;;;;;34.60;18.70;;;;;;;;;;5011545;28;20060;-85
2022/12/14 13:54:22;;;;;;;37.03;19.35;;;;;;;;;;5021259;28;20102;-85
2022/12/14 13:56:48;;;;;;;33.90;18.85;;;;;;;;;;5018252;28;20022;-84
2022/12/14 13:59:19;;;;;;;32.53;18.77;;;;;;;;;;5016981;28;20037;-85
2022/12/14 14:01:45;;;;;;;35.15;17.15;;;;;;;;;;5024112;28;20036;-86
2022/12/14 14:04:14;;;;;;;30.80;17.95;;;;;;;;;;5026050;28;20033;-86
2022/12/14 14:06:44;;;;;;;29.50;17.33;;;;;;;;;;5015945;28;20033;-85
2022/12/14 14:09:28;;;;;;;24.25;15.88;;;;;;;;;;5025318;28;20045;-87
2022/12/14 14:11:57;;;;;;;29.50;15.07;;;;;;;;;;5025606;28;20068;-85
2022/12/14 14:14:42;;;;;;;32.95;16.05;;;;;;;;;;5024257;28;20482;-86
2022/12/14 14:17:17;;;;;;;24.63;15.80;;;;;;;;;;5007930;28;20057;-84
2022/12/14 14:19:44;;;;;;;28.65;15.65;;;;;;;;;;5040521;28;20042;-82
2022/12/14 14:22:10;;;;;;;25.35;15.25;;;;;;;;;;5030014;28;20036;-83
2022/12/14 14:24:51;;;;;;;25.70;15.00;;;;;;;;;;5036948;28;20050;-83
2022/12/14 14:27:20;;;;;;;30.05;15.43;;;;;;;;;;5034584;28;20029;-84
2022/12/14 14:29:47;;;;;;;29.92;17.85;;;;;;;;;;5016568;28;20076;-84
2022/12/14 14:32:34;;;;;;;31.27;17.55;;;;;;;;;;5016646;28;20113;-83
2022/12/14 14:35:21;;;;;;;27.88;17.63;;;;;;;;;;5022716;28;20038;-85
2022/12/14 14:37:55;;;;;;;25.92;15.93;;;;;;;;;;5002598;28;20026;-83
2022/12/14 14:40:24;;;;;;;25.85;15.88;;;;;;;;;;5017821;28;20028;-85
2022/12/14 14:42:56;;;;;;;27.05;16.73;;;;;;;;;;5024288;28;20030;-83
2022/12/14 14:45:30;;;;;;;31.70;16.90;;;;;;;;;;5023104;28;20104;-85
2022/12/14 14:47:58;;;;;;;25.58;15.55;;;;;;;;;;5023149;28;20041;-84
2022/12/14 14:50:51;;;;;;;28.00;16.17;;;;;;;;;;5006485;28;20080;-86
2022/12/14 14:53:29;;;;;;;30.25;17.67;;;;;;;;;;5004071;28;20050;-84
2022/12/14 14:55:55;;;;;;;32.63;17.52;;;;;;;;;;5007163;28;20036;-82
2022/12/14 14:58:21;;;;;;;26.30;15.93;;;;;;;;;;5006137;28;20049;-86
2022/12/14 15:01:03;;;;;;;28.25;16.23;;;;;;;;;;5014562;28;20045;-83
2022/12/14 15:03:53;;;;;;;29.15;17.02;;;;;;;;;;5017884;28;20026;-86
2022/12/14 15:06:40;;;;;;;29.40;16.80;;;;;;;;;;5000942;28;20038;-81
2022/12/14 15:09:09;;;;;;;31.10;17.75;;;;;;;;;;5023770;28;20038;-83
2022/12/14 15:11:41;;;;;;;26.90;16.40;;;;;;;;;;5003389;28;20030;-84
2022/12/14 15:14:25;;;;;;;26.65;15.80;;;;;;;;;;5011710;28;20470;-84
2022/12/14 15:16:51;;;;;;;30.10;17.95;;;;;;;;;;5020455;28;20346;-86
2022/12/14 15:19:35;;;;;;;31.02;18.38;;;;;;;;;;5003042;28;20041;-86
2022/12/14 15:22:09;;;;;;;33.22;18.92;;;;;;;;;;5035930;28;20021;-83
2022/12/14 15:24:40;;;;;;;34.10;18.42;;;;;;;;;;5026343;28;20093;-82
2022/12/14 15:27:25;;;;;;;34.75;20.65;;;;;;;;;;5007946;28;20053;-88
2022/12/14 15:29:51;;;;;;;32.28;19.45;;;;;;;;;;5039680;28;20036;-85
2022/12/14 15:32:19;;;;;;;32.50;19.52;;;;;;;;;;5021160;28;20033;-87
2022/12/14 15:34:52;;;;;;;29.17;17.75;;;;;;;;;;5021126;28;20069;-85
2022/12/14 15:37:26;;;;;;;32.95;20.23;;;;;;;;;;5004971;28;20392;-83
2022/12/14 15:40:11;;;;;;;34.65;20.08;;;;;;;;;;5023296;28;20033;-87
2022/12/14 15:42:46;;;;;;;34.10;20.73;;;;;;;;;;5021980;28;20109;-85
2022/12/14 15:45:14;;;;;;;33.10;20.33;;;;;;;;;;5022387;28;20045;-85
2022/12/14 15:47:40;;;;;;;31.80;19.15;;;;;;;;;;5004877;28;20556;-84
2022/12/14 15:50:13;;;;;;;31.38;18.67;;;;;;;;;;5005224;28;20030;-84
2022/12/14 15:52:40;;;;;;;31.45;18.02;;;;;;;;;;5024362;28;20034;-85
2022/12/14 15:55:16;;;;;;;27.58;16.15;;;;;;;;;;5029222;28;20085;-82
2022/12/14 15:57:42;;;;;;;26.42;16.17;;;;;;;;;;5029640;28;20036;-83
2022/12/14 16:00:10;;;;;;;27.38;15.35;;;;;;;;;;5028987;28;20307;-85
2022/12/14 16:02:41;;;;;;;26.08;16.60;;;;;;;;;;5017662;28;20053;-84
2022/12/14 16:05:13;;;;;;;26.25;16.67;;;;;;;;;;5027006;28;20025;-84
2022/12/14 16:07:40;;;;;;;31.80;18.65;;;;;;;;;;5018593;28;20026;-84
2022/12/14 16:10:32;;;;;;;33.92;19.60;;;;;;;;;;5019072;28;20026;-86
2022/12/14 16:13:04;;;;;;;34.17;20.63;;;;;;;;;;5006888;28;20027;-85
2022/12/14 16:15:30;;;;;;;39.80;21.50;;;;;;;;;;5020417;28;20037;-84
2022/12/14 16:17:57;;;;;;;33.10;19.50;;;;;;;;;;5019710;28;20401;-84
2022/12/14 16:20:29;;;;;;;46.33;28.25;;;;;;;;;;5028962;28;20497;-84
2022/12/14 16:23:04;;;;;;;50.17;29.80;;;;;;;;;;5002581;28;20065;-84
2022/12/14 16:25:32;;;;;;;47.05;28.73;;;;;;;;;;5007166;28;20026;-85
2022/12/14 16:28:15;;;;;;;50.22;30.15;;;;;;;;;;5035250;28;20033;-83
2022/12/14 16:30:51;;;;;;;43.97;26.67;;;;;;;;;;5025756;28;20036;-84
2022/12/14 16:33:18;;;;;;;49.42;26.30;;;;;;;;;;5034044;28;20029;-85
2022/12/14 16:35:45;;;;;;;40.35;23.95;;;;;;;;;;5023917;28;20457;-84
2022/12/14 16:38:13;;;;;;;39.03;24.15;;;;;;;;;;5022311;28;20089;-83
2022/12/14 16:40:41;;;;;;;36.55;22.17;;;;;;;;;;5023272;28;20023;-85
2022/12/14 16:43:22;;;;;;;40.40;23.42;;;;;;;;;;5024116;28;20026;-85
2022/12/14 16:46:09;;;;;;;38.65;23.10;;;;;;;;;;5024471;28;20034;-85
2022/12/14 16:48:36;;;;;;;40.42;21.58;;;;;;;;;;4999931;28;20113;-86
2022/12/14 16:51:18;;;;;;;30.85;20.13;;;;;;;;;;4992066;28;20087;-86
2022/12/14 16:54:10;;;;;;;39.35;22.92;;;;;;;;;;5025741;28;20113;-85
2022/12/14 16:56:40;;;;;;;33.13;20.45;;;;;;;;;;4986586;28;20034;-86
2022/12/14 16:59:19;;;;;;;39.10;21.85;;;;;;;;;;5000640;28;20026;-85
2022/12/14 17:01:46;;;;;;;33.50;22.00;;;;;;;;;;4982850;28;20022;-85
2022/12/14 17:04:13;;;;;;;39.25;23.60;;;;;;;;;;4985315;28;20631;-85
2022/12/14 17:06:39;;;;;;;34.83;21.60;;;;;;;;;;5014661;28;20515;-86
2022/12/14 17:09:06;;;;;;;38.53;21.60;;;;;;;;;;5035214;28;20116;-87
2022/12/14 17:11:32;;;;;;;37.38;22.50;;;;;;;;;;5021810;28;20030;-87
2022/12/14 17:13:58;;;;;;;35.33;23.25;;;;;;;;;;5020895;28;20026;-87
2022/12/14 17:16:24;;;;;;;41.03;22.73;;;;;;;;;;5020354;28;20026;-84
2022/12/14 17:18:50;;;;;;;35.17;21.80;;;;;;;;;;5023301;28;20053;-85
2022/12/14 17:21:19;;;;;;;30.73;21.17;;;;;;;;;;5003818;28;20018;-80
2022/12/14 17:23:45;;;;;;;36.72;21.25;;;;;;;;;;5018319;28;20022;-78
2022/12/14 17:26:16;;;;;;;32.00;19.52;;;;;;;;;;5017344;28;20030;-82
2022/12/14 17:28:46;;;;;;;34.10;19.60;;;;;;;;;;5019990;28;20177;-82
2022/12/14 17:31:14;;;;;;;61.55;30.50;;;;;;;;;;5019376;28;20084;-82
2022/12/14 17:33:47;;;;;;;100.28;47.17;;;;;;;;;;5016259;28;20395;-81
2022/12/14 17:36:14;;;;;;;73.50;39.55;;;;;;;;;;4999885;28;20046;-83
2022/12/14 17:38:40;;;;;;;48.15;27.65;;;;;;;;;;5001196;28;20029;-81
2022/12/14 17:41:07;;;;;;;40.67;24.20;;;;;;;;;;5000453;28;20018;-81